Time;durP1;ratioP1;P1;durP2;ratioP2;P2;SDS_P1;SDS_P2;PMS_P1;PMS_P2;Temp;Humidity;BMP_temperature;BMP_pressure;BME280_temperature;BME280_humidity;BME280_pressure;Samples;Min_cycle;Max_cycle;Signal;HPM_P1;HPM_P2
2023/01/01 07:56:16;;;;;;;61.97;40.58;;;;;;;-143.57;100.00;51310.94;5116073;27;20626;-62
2023/01/01 07:58:42;;;;;;;59.10;40.38;;;;;;;-143.57;100.00;51326.84;5112395;27;20047;-62
2023/01/01 08:01:11;;;;;;;59.92;38.67;;;;;;;-143.57;100.00;51356.66;5111071;27;20047;-62
2023/01/01 08:03:38;;;;;;;58.80;37.10;;;;;;;-143.57;100.00;51330.81;5116327;27;20104;-62
2023/01/01 08:06:14;;;;;;;102.47;58.53;;;;;;;-143.57;100.00;51312.94;5113094;27;20793;-62
2023/01/01 08:08:41;;;;;;;56.28;34.72;;;;;;;-143.57;100.00;51334.78;5113712;27;20048;-62
2023/01/01 08:11:08;;;;;;;56.60;33.50;;;;;;;-143.57;100.00;51314.91;5110523;27;20061;-62
2023/01/01 08:14:17;;;;;;;57.05;34.15;;;;;;;-143.57;100.00;51295.03;5114554;27;20039;-62
2023/01/01 08:28:37;;;;;;;63.05;37.00;;;;;;;-143.57;100.00;51324.84;5109173;27;20548;-60
2023/01/01 08:31:04;;;;;;;58.92;31.02;;;;;;;-143.57;100.00;51354.66;5116438;27;20074;-62
2023/01/01 08:33:30;;;;;;;59.50;34.40;;;;;;;-143.57;100.00;51342.75;5115716;27;20039;-62
2023/01/01 08:35:58;;;;;;;51.67;31.05;;;;;;;-143.57;100.00;51306.97;5111460;27;20075;-62
2023/01/01 08:38:25;;;;;;;59.63;36.00;;;;;;;-143.57;100.00;51354.66;5110571;27;20047;-62
2023/01/01 08:40:52;;;;;;;58.47;33.45;;;;;;;-143.57;100.00;51314.91;5113507;27;20047;-62
2023/01/01 08:43:19;;;;;;;55.25;33.33;;;;;;;-143.57;100.00;51330.81;5111234;27;20048;-62
2023/01/01 08:45:46;;;;;;;62.55;35.38;;;;;;;-143.57;100.00;51322.88;5115567;27;20075;-63
2023/01/01 08:48:12;;;;;;;57.25;35.58;;;;;;;-143.57;100.00;51314.91;5108292;27;20995;-62
2023/01/01 08:50:39;;;;;;;64.28;38.47;;;;;;;-143.57;100.00;51334.78;5117669;27;20047;-62
2023/01/01 08:53:06;;;;;;;60.35;38.70;;;;;;;-143.57;100.00;51354.66;5113009;27;20047;-62
2023/01/01 08:55:41;;;;;;;66.13;36.72;;;;;;;-143.57;100.00;51283.09;5107122;27;20097;-63
2023/01/01 08:58:08;;;;;;;60.25;39.83;;;;;;;-143.57;100.00;51350.69;5100942;27;20044;-63
2023/01/01 09:00:35;;;;;;;59.53;37.10;;;;;;;-143.57;100.00;51318.88;5100740;27;20865;-63
2023/01/01 09:03:02;;;;;;;58.55;37.97;;;;;;;-143.57;100.00;51358.66;5098883;27;20822;-63
2023/01/01 09:05:29;;;;;;;59.28;37.17;;;;;;;-143.57;100.00;51342.75;5097712;27;20592;-63
2023/01/01 09:07:56;;;;;;;65.38;37.80;;;;;;;-143.57;100.00;51330.81;5100819;27;20051;-63
2023/01/01 09:10:25;;;;;;;64.13;39.10;;;;;;;-143.57;100.00;51334.78;5103071;27;20071;-62
2023/01/01 09:12:52;;;;;;;71.43;41.38;;;;;;;-143.57;100.00;51308.94;5098292;27;20048;-63
2023/01/01 09:15:19;;;;;;;65.22;43.58;;;;;;;-143.57;100.00;51354.66;5095880;27;20691;-63
2023/01/01 09:17:45;;;;;;;69.00;43.53;;;;;;;-143.57;100.00;51338.78;5098152;27;20047;-62
2023/01/01 09:20:12;;;;;;;66.53;42.03;;;;;;;-143.57;100.00;51310.94;5100451;27;20039;-62
2023/01/01 09:22:39;;;;;;;71.55;43.20;;;;;;;-143.57;100.00;51334.78;5106456;27;20055;-62
2023/01/01 09:25:06;;;;;;;74.85;46.60;;;;;;;-143.57;100.00;51303.00;5097718;27;20123;-62
2023/01/01 09:27:34;;;;;;;77.45;47.95;;;;;;;-143.57;100.00;51352.69;5100780;27;20050;-62
2023/01/01 09:30:01;;;;;;;78.47;49.92;;;;;;;-143.57;100.00;51362.63;5097625;27;20088;-62
2023/01/01 09:32:28;;;;;;;78.72;51.05;;;;;;;-143.57;100.00;51334.78;5099051;27;20036;-61
2023/01/01 09:34:56;;;;;;;77.13;47.40;;;;;;;-143.57;100.00;51346.72;5096062;27;20046;-62
2023/01/01 09:37:23;;;;;;;82.07;51.33;;;;;;;-143.57;100.00;51334.78;5098121;27;20108;-63
2023/01/01 09:39:50;;;;;;;68.47;43.97;;;;;;;-143.57;100.00;51366.59;5106054;27;20773;-62
2023/01/01 09:42:39;;;;;;;69.32;41.05;;;;;;;-143.57;100.00;51342.75;5104829;27;20151;-62
2023/01/01 09:45:19;;;;;;;66.13;38.42;;;;;;;-143.57;100.00;51318.88;5096210;27;20052;-62
2023/01/01 09:47:50;;;;;;;64.50;37.30;;;;;;;-143.57;100.00;51322.88;5094318;27;20525;-63
2023/01/01 09:50:20;;;;;;;73.70;41.78;;;;;;;-143.57;100.00;51358.66;5100544;27;20039;-63
2023/01/01 09:53:03;;;;;;;67.13;41.15;;;;;;;-143.57;100.00;51342.75;5096555;27;20577;-63
2023/01/01 09:55:41;;;;;;;65.82;37.88;;;;;;;-143.57;100.00;51303.00;5096318;27;20046;-62
2023/01/01 09:58:10;;;;;;;76.47;46.05;;;;;;;-143.57;100.00;51350.69;5095955;27;20050;-63
2023/01/01 10:00:42;;;;;;;66.95;42.47;;;;;;;-143.57;100.00;51348.72;5102920;27;20096;-63
2023/01/01 10:03:36;;;;;;;73.68;41.25;;;;;;;-143.57;100.00;51360.63;5098195;27;20048;-63
2023/01/01 10:06:21;;;;;;;71.30;42.35;;;;;;;-143.57;100.00;51340.75;5096207;27;20032;-60
2023/01/01 10:09:46;;;;;;;82.25;49.03;;;;;;;-143.57;100.00;51374.56;5094648;27;20051;-63
2023/01/01 10:12:24;;;;;;;71.72;42.03;;;;;;;-143.57;100.00;51336.78;5035709;28;20551;-60
2023/01/01 10:15:00;;;;;;;76.55;42.50;;;;;;;-143.57;100.00;51318.88;5089916;28;20054;-61
2023/01/01 10:17:40;;;;;;;76.55;44.88;;;;;;;-143.57;100.00;51328.81;5098017;27;20044;-61
2023/01/01 10:20:33;;;;;;;61.75;35.90;;;;;;;-143.57;100.00;51318.88;5096971;27;20043;-61
2023/01/01 10:23:06;;;;;;;;;;;;;;;-143.57;100.00;51334.78;5098464;27;20039;-61
2023/01/01 10:25:34;;;;;;;68.82;41.75;;;;;;;-143.57;100.00;51346.72;5100766;27;19930;-62
2023/01/01 10:28:20;;;;;;;71.43;42.63;;;;;;;-143.57;100.00;51310.94;5095932;27;20051;-61
2023/01/01 10:30:46;;;;;;;83.45;48.03;;;;;;;-143.57;100.00;51346.72;5096500;27;20517;-60
2023/01/01 10:33:13;;;;;;;70.72;46.40;;;;;;;-143.57;100.00;51334.78;5098545;27;20044;-61
2023/01/01 10:35:48;;;;;;;74.00;42.17;;;;;;;-143.57;100.00;51330.81;5097128;27;20036;-62
2023/01/01 10:38:21;;;;;;;;;;;;;;;-143.57;100.00;51297.03;5095293;27;20051;-61
2023/01/01 10:40:50;;;;;;;61.03;36.40;;;;;;;-143.57;100.00;51358.66;5096296;27;19924;-62
2023/01/01 10:43:17;;;;;;;66.22;37.97;;;;;;;-143.57;100.00;51342.75;5099768;27;20782;-62
2023/01/01 10:45:53;;;;;;;62.67;36.55;;;;;;;-143.57;100.00;51320.88;5095011;27;20115;-62
2023/01/01 10:48:23;;;;;;;62.67;36.50;;;;;;;-143.57;100.00;51314.91;5095577;27;20326;-62
2023/01/01 10:50:53;;;;;;;61.50;36.85;;;;;;;-143.57;100.00;51314.91;5092676;27;20179;-62
2023/01/01 10:53:25;;;;;;;55.40;34.72;;;;;;;-143.57;100.00;51295.03;5102787;27;20162;-63
2023/01/01 10:56:00;;;;;;;66.00;40.45;;;;;;;-143.57;100.00;51354.66;5095971;28;20148;-62
2023/01/01 10:58:35;;;;;;;57.60;36.85;;;;;;;-143.57;100.00;51330.81;5101093;27;20060;-62
2023/01/01 11:01:04;;;;;;;61.78;36.03;;;;;;;-143.57;100.00;51330.81;5092771;27;20075;-63
2023/01/01 11:03:31;;;;;;;59.45;34.92;;;;;;;-143.57;100.00;51334.78;5099013;27;20047;-63
2023/01/01 11:06:18;;;;;;;64.80;38.67;;;;;;;-143.57;100.00;51326.84;5095788;27;20055;-63
2023/01/01 11:08:55;;;;;;;63.15;39.42;;;;;;;-143.57;100.00;51310.94;5102031;27;20071;-63
2023/01/01 11:11:38;;;;;;;55.00;33.95;;;;;;;-143.57;100.00;51326.84;5097663;28;20051;-63
2023/01/01 11:14:18;;;;;;;44.25;28.00;;;;;;;-143.57;100.00;51295.03;5100544;27;20175;-63
2023/01/01 11:16:46;;;;;;;49.90;29.70;;;;;;;-143.57;100.00;51310.94;5098484;27;20135;-63
2023/01/01 11:19:32;;;;;;;42.40;27.02;;;;;;;-143.57;100.00;51334.78;5099229;27;20063;-63
2023/01/01 11:21:59;;;;;;;41.95;26.15;;;;;;;-143.57;100.00;51334.78;5098340;27;20054;-63
2023/01/01 11:24:29;;;;;;;43.60;27.20;;;;;;;-143.57;100.00;51312.94;5097713;27;20553;-62
2023/01/01 11:27:14;;;;;;;46.17;26.88;;;;;;;-143.57;100.00;51346.72;5097455;28;20050;-63
2023/01/01 11:29:41;;;;;;;42.70;25.42;;;;;;;-143.57;100.00;51310.94;5097236;28;20047;-63
2023/01/01 11:32:08;;;;;;;42.88;28.23;;;;;;;-143.57;100.00;51314.91;5091405;27;20043;-63
2023/01/01 11:34:39;;;;;;;38.22;26.15;;;;;;;-143.57;100.00;51322.88;5104127;27;20048;-62
2023/01/01 11:37:06;;;;;;;39.72;25.77;;;;;;;-143.57;100.00;51334.78;5097001;27;20143;-62
2023/01/01 11:39:36;;;;;;;41.25;23.60;;;;;;;-143.57;100.00;51314.91;5095702;27;20100;-62
2023/01/01 11:42:04;;;;;;;34.42;21.95;;;;;;;-143.57;100.00;51328.81;5099244;27;20047;-62
2023/01/01 11:44:39;;;;;;;42.17;24.10;;;;;;;-143.57;100.00;51314.91;5102166;28;20047;-62
2023/01/01 11:47:18;;;;;;;34.88;20.88;;;;;;;-143.57;100.00;51322.88;5099714;27;20050;-62
2023/01/01 11:49:51;;;;;;;25.58;16.50;;;;;;;-143.57;70.40;51322.88;5096285;28;20048;-62
2023/01/01 11:52:51;;;;;;;24.92;15.65;;;;;;;-143.57;65.24;51318.88;5096307;27;20044;-62
2023/01/01 11:55:24;;;;;;;21.30;15.20;;;;;;;-143.57;64.71;51308.94;5096654;28;20084;-62
2023/01/01 11:57:54;;;;;;;28.88;17.13;;;;;;;-143.57;63.66;51303.00;5106093;27;20099;-62
2023/01/01 12:00:21;;;;;;;28.00;19.70;;;;;;;-143.57;62.51;51318.88;5098374;27;20047;-61
2023/01/01 12:02:59;;;;;;;26.52;17.73;;;;;;;-143.57;60.42;51304.97;5101831;27;20047;-61
2023/01/01 12:05:41;;;;;;;29.30;18.40;;;;;;;-143.57;57.69;51299.00;5101573;28;20238;-62
2023/01/01 12:08:12;;;;;;;24.17;15.68;;;;;;;-143.57;58.24;51332.81;5098035;27;20800;-61
2023/01/01 12:10:51;;;;;;;25.73;16.15;;;;;;;-143.57;57.91;51306.97;5098549;28;20044;-61
2023/01/01 12:13:24;;;;;;;28.63;17.52;;;;;;;-143.57;57.17;51306.97;5095775;28;20790;-61
2023/01/01 12:15:57;;;;;;;24.08;16.13;;;;;;;-143.57;55.54;51338.78;5096704;28;20612;-61
2023/01/01 12:18:32;;;;;;;27.02;15.70;;;;;;;-143.57;55.50;51303.00;5105128;27;20084;-61
2023/01/01 12:21:22;;;;;;;26.35;16.80;;;;;;;-143.57;55.91;51303.00;5100371;28;20162;-62
2023/01/01 12:23:49;;;;;;;18.90;14.15;;;;;;;-143.57;54.79;51316.91;5099738;28;20578;-61
2023/01/01 12:26:22;;;;;;;24.85;15.25;;;;;;;-143.57;53.12;51295.03;5097772;27;20713;-62
2023/01/01 12:29:11;;;;;;;24.88;16.55;;;;;;;-143.57;52.10;51291.06;5101775;28;20077;-61
2023/01/01 12:31:48;;;;;;;23.45;15.90;;;;;;;-143.57;50.61;51303.00;5099504;27;20579;-61
2023/01/01 12:34:50;;;;;;;26.17;16.10;;;;;;;-143.57;47.50;51318.88;5103646;27;20078;-61
2023/01/01 12:37:46;;;;;;;38.17;24.95;;;;;;;-143.57;48.33;51281.13;5101519;27;20043;-61
2023/01/01 12:40:43;;;;;;;25.38;17.05;;;;;;;-143.57;47.93;51295.03;5106498;27;20048;-61
2023/01/01 12:43:34;;;;;;;28.15;19.63;;;;;;;-143.57;48.57;51336.78;5102616;27;20047;-61
2023/01/01 12:50:40;;;;;;;25.48;17.67;;;;;;;-143.57;47.67;51291.06;5097866;27;20491;-61
2023/01/01 12:53:13;;;;;;;28.50;18.33;;;;;;;-143.57;46.84;51295.03;5101805;27;20050;-62
2023/01/01 12:55:52;;;;;;;29.17;18.60;;;;;;;-143.57;46.34;51303.00;5103786;27;20052;-61
2023/01/01 12:58:42;;;;;;;23.95;14.60;;;;;;;-143.57;46.67;51287.09;5107195;27;20089;-62
2023/01/01 13:01:21;;;;;;;25.90;15.35;;;;;;;-143.57;46.19;51271.19;5107357;27;20086;-62
2023/01/01 13:03:56;;;;;;;30.52;19.63;;;;;;;-143.57;46.91;51267.19;5099551;27;20039;-62
2023/01/01 13:06:48;;;;;;;29.55;21.05;;;;;;;-143.57;45.47;51259.25;5101515;27;20036;-62
2023/01/01 13:09:21;;;;;;;30.10;18.63;;;;;;;-143.57;44.91;51299.00;5096021;27;20046;-62
2023/01/01 13:11:59;;;;;;;25.73;17.95;;;;;;;-143.57;43.88;51263.22;5110376;27;20108;-62
2023/01/01 13:14:26;;;;;;;23.58;17.00;;;;;;;-143.57;43.32;51299.00;5106029;27;20131;-62
2023/01/01 13:16:55;;;;;;;76.82;48.38;;;;;;;-143.57;42.48;51291.06;5104380;27;20043;-61
2023/01/01 13:19:32;;;;;;;31.15;18.70;;;;;;;-143.57;43.54;51299.00;5098661;27;20086;-62
2023/01/01 13:22:24;;;;;;;23.92;17.25;;;;;;;-143.57;44.37;51275.16;5103281;27;20043;-62
2023/01/01 13:25:09;;;;;;;;;;;;;;;-143.57;43.38;51287.09;5100929;27;20051;-62
2023/01/01 13:28:01;;;;;;;21.38;14.43;;;;;;;-143.57;43.43;51275.16;5108751;27;20429;-63
2023/01/01 13:30:37;;;;;;;71.00;47.22;;;;;;;-143.57;42.94;51283.09;5094578;27;20040;-63
2023/01/01 13:33:24;;;;;;;19.92;13.35;;;;;;;-143.57;42.27;51297.03;5105774;27;20046;-63
2023/01/01 13:36:18;;;;;;;23.92;18.52;;;;;;;-143.57;43.06;51279.13;5106212;27;20833;-64
2023/01/01 13:38:51;;;;;;;27.02;16.45;;;;;;;-143.57;42.80;51291.06;5106561;27;20047;-62
2023/01/01 13:41:38;;;;;;;22.48;13.95;;;;;;;-143.57;42.24;51277.16;5104984;27;20124;-63
2023/01/01 13:44:06;;;;;;;27.38;18.67;;;;;;;-143.57;42.08;51295.03;5106319;27;20048;-63
2023/01/01 13:46:42;;;;;;;23.85;17.42;;;;;;;-143.57;41.04;51295.03;5103465;27;20047;-62
2023/01/01 13:49:28;;;;;;;33.20;22.88;;;;;;;-143.57;38.98;51251.31;5101958;27;20044;-63
2023/01/01 13:52:19;;;;;;;23.40;16.33;;;;;;;-143.57;37.37;51269.19;5097024;27;20035;-63
2023/01/01 13:55:21;;;;;;;27.67;15.82;;;;;;;-143.57;36.45;51243.34;5105833;27;21602;-63
2023/01/01 13:58:39;;;;;;;22.98;16.88;;;;;;;-143.57;35.93;51271.19;5095528;27;20082;-63
2023/01/01 14:01:13;;;;;;;25.80;18.15;;;;;;;-143.57;35.39;51287.09;5089369;27;20612;-63
2023/01/01 14:03:53;;;;;;;25.55;17.70;;;;;;;-143.57;34.65;51217.50;5099301;27;20074;-63
2023/01/01 14:06:29;;;;;;;24.02;18.05;;;;;;;-143.57;34.35;51215.53;5101752;27;20040;-62
2023/01/01 14:09:13;;;;;;;28.95;21.95;;;;;;;-143.57;34.14;51251.31;5103676;27;20104;-63
2023/01/01 14:11:40;;;;;;;27.05;19.67;;;;;;;-143.57;34.01;51247.31;5099350;27;20128;-63
2023/01/01 14:14:29;;;;;;;27.25;20.25;;;;;;;-143.57;33.61;51239.38;5100947;27;20449;-63
2023/01/01 14:16:59;;;;;;;28.33;21.00;;;;;;;-143.57;33.36;51235.41;5100906;27;20044;-63
2023/01/01 14:19:27;;;;;;;27.33;19.38;;;;;;;-143.57;33.46;51239.38;5101631;27;20071;-63
2023/01/01 14:21:54;;;;;;;28.65;21.48;;;;;;;-143.57;33.49;51271.19;5103318;27;20044;-63
2023/01/01 14:24:23;;;;;;;25.83;20.45;;;;;;;-143.57;34.40;51227.44;5100553;27;20051;-62
2023/01/01 14:26:53;;;;;;;28.40;20.17;;;;;;;-143.57;35.23;51235.41;5104566;27;20039;-64
2023/01/01 14:29:29;;;;;;;29.50;21.23;;;;;;;-143.57;36.22;51279.13;5100231;27;20065;-63
2023/01/01 14:32:12;;;;;;;33.75;23.33;;;;;;;-143.57;37.80;51239.38;5107328;27;20047;-64
2023/01/01 14:34:39;;;;;;;32.00;21.63;;;;;;;-143.57;39.06;51247.31;5104917;27;20055;-63
2023/01/01 14:37:22;;;;;;;27.60;19.52;;;;;;;-143.57;40.29;51299.00;5102759;27;20561;-63
2023/01/01 14:40:08;;;;;;;25.67;17.35;;;;;;;-143.57;41.53;51267.19;5099371;27;20044;-63
2023/01/01 14:42:35;;;;;;;42.13;24.63;;;;;;;-143.57;42.97;51271.19;5108996;27;20070;-63
2023/01/01 14:45:03;;;;;;;31.27;18.73;;;;;;;-143.57;44.19;51275.16;5100150;27;20044;-63
2023/01/01 14:47:33;;;;;;;28.20;16.52;;;;;;;-143.57;45.24;51295.03;5100129;27;20047;-63
2023/01/01 14:50:26;;;;;;;25.30;15.80;;;;;;;-143.57;46.69;51251.31;5094620;28;20043;-63
2023/01/01 14:52:58;;;;;;;24.42;16.08;;;;;;;-143.57;47.94;51297.03;5098295;27;20043;-63
2023/01/01 14:55:29;;;;;;;27.92;16.73;;;;;;;-143.57;49.20;51291.06;5097318;27;20047;-63
2023/01/01 14:57:59;;;;;;;23.23;15.40;;;;;;;-143.57;50.21;51299.00;5099486;27;20047;-63
2023/01/01 15:00:29;;;;;;;26.45;18.50;;;;;;;-143.57;51.62;51285.09;5099905;27;20035;-63
2023/01/01 15:03:12;;;;;;;23.50;16.40;;;;;;;-143.57;52.38;51326.84;5103279;27;20054;-64
2023/01/01 15:05:42;;;;;;;29.23;20.15;;;;;;;-143.57;53.67;51306.97;5094239;27;20047;-64
2023/01/01 15:08:28;;;;;;;28.50;16.95;;;;;;;-143.57;54.91;51304.97;5100037;28;20051;-64
2023/01/01 15:10:55;;;;;;;25.10;16.98;;;;;;;-143.57;55.87;51297.03;5098638;27;20043;-63
2023/01/01 15:13:25;;;;;;;26.35;16.45;;;;;;;-143.57;56.85;51314.91;5103651;27;20112;-64
2023/01/01 15:16:13;;;;;;;26.17;18.67;;;;;;;-143.57;58.15;51295.03;5096214;27;20035;-64
2023/01/01 15:18:41;;;;;;;32.05;17.92;;;;;;;-143.57;59.60;51287.09;5101345;27;20051;-64
2023/01/01 15:21:32;;;;;;;32.58;18.75;;;;;;;-143.57;61.05;51279.13;5100212;27;20082;-63
2023/01/01 15:24:08;;;;;;;30.55;17.63;;;;;;;-143.57;62.43;51289.06;5098644;27;20047;-64
2023/01/01 15:26:50;;;;;;;29.58;17.38;;;;;;;-143.57;63.87;51285.09;5098116;27;20128;-63
2023/01/01 15:29:31;;;;;;;32.70;20.55;;;;;;;-143.57;65.43;51295.03;5103629;27;20051;-64
2023/01/01 15:32:01;;;;;;;36.97;21.73;;;;;;;-143.57;67.86;51275.16;5101410;27;20807;-64
2023/01/01 15:34:31;;;;;;;35.42;22.65;;;;;;;-143.57;70.51;51269.19;5099664;27;20046;-63
2023/01/01 15:37:20;;;;;;;49.25;31.50;;;;;;;-143.57;74.85;51303.00;5101261;27;20043;-64
2023/01/01 15:39:58;;;;;;;47.47;30.52;;;;;;;-143.57;77.33;51291.06;5100977;28;20036;-63
2023/01/01 15:42:35;;;;;;;44.10;28.80;;;;;;;-143.57;80.75;51285.09;5099926;28;20116;-64
2023/01/01 15:45:28;;;;;;;41.13;26.98;;;;;;;-143.57;82.67;51283.09;5096879;28;20434;-63
2023/01/01 15:48:22;;;;;;;49.35;30.80;;;;;;;-143.57;85.39;51314.91;5099949;28;20122;-63
2023/01/01 15:50:49;;;;;;;42.28;29.30;;;;;;;-143.57;86.27;51332.81;5095073;27;20039;-64
2023/01/01 15:53:28;;;;;;;49.63;30.30;;;;;;;-143.57;88.15;51303.00;5099722;27;20042;-64
2023/01/01 15:55:57;;;;;;;44.63;25.95;;;;;;;-143.57;91.06;51310.94;5100285;27;20047;-63
2023/01/01 15:58:36;;;;;;;43.45;27.55;;;;;;;-143.57;90.64;51303.00;5098578;28;20108;-64
2023/01/01 16:01:06;;;;;;;49.58;29.35;;;;;;;-143.57;92.85;51326.84;5096027;27;20051;-64
2023/01/01 16:03:37;;;;;;;50.80;31.52;;;;;;;-143.57;95.54;51314.91;5098886;28;20036;-64
2023/01/01 16:06:05;;;;;;;43.42;28.33;;;;;;;-143.57;97.01;51291.06;5100074;27;20047;-64
2023/01/01 16:08:33;;;;;;;39.83;26.52;;;;;;;-143.57;98.79;51308.94;5104529;27;20054;-63
2023/01/01 16:11:00;;;;;;;49.10;27.55;;;;;;;-143.57;100.00;51318.88;5106286;27;20047;-63
2023/01/01 16:13:26;;;;;;;40.17;24.52;;;;;;;-143.57;100.00;51283.09;5101768;27;20044;-63
2023/01/01 16:15:59;;;;;;;46.05;24.20;;;;;;;-143.57;100.00;51322.88;5104024;27;20126;-63
2023/01/01 16:18:37;;;;;;;40.50;26.38;;;;;;;-143.57;100.00;51318.88;5108430;27;20340;-63
2023/01/01 16:21:04;;;;;;;37.30;24.92;;;;;;;-143.57;100.00;51295.03;5107657;27;20787;-64
2023/01/01 16:23:31;;;;;;;35.33;21.80;;;;;;;-143.57;100.00;51310.94;5104713;27;20043;-63
2023/01/01 16:25:58;;;;;;;36.53;21.10;;;;;;;-143.57;100.00;51303.00;5103186;27;20783;-63
2023/01/01 16:28:25;;;;;;;33.40;21.85;;;;;;;-143.57;100.00;51312.94;5105806;27;20072;-63
2023/01/01 16:30:51;;;;;;;36.42;22.52;;;;;;;-143.57;100.00;51314.91;5103734;27;20051;-63
2023/01/01 16:33:24;;;;;;;36.38;22.70;;;;;;;-143.57;100.00;51318.88;5103354;27;20047;-64
2023/01/01 16:35:50;;;;;;;43.50;27.05;;;;;;;-143.57;100.00;51334.78;5099456;27;20602;-64
2023/01/01 16:38:17;;;;;;;43.85;27.63;;;;;;;-143.57;100.00;51326.84;5104333;27;20522;-63
2023/01/01 16:40:44;;;;;;;44.85;27.67;;;;;;;-143.57;100.00;51350.69;5101645;27;20102;-63
2023/01/01 16:43:15;;;;;;;37.35;25.35;;;;;;;-143.57;100.00;51295.03;5102641;27;20035;-63
2023/01/01 16:45:43;;;;;;;35.15;21.35;;;;;;;-143.57;100.00;51322.88;5107517;27;20111;-63
2023/01/01 16:48:10;;;;;;;31.80;19.27;;;;;;;-143.57;100.00;51318.88;5100214;27;20100;-64
2023/01/01 16:50:36;;;;;;;34.53;20.23;;;;;;;-143.57;100.00;51318.88;5106256;27;20105;-63
2023/01/01 16:53:03;;;;;;;34.15;21.35;;;;;;;-143.57;100.00;51306.97;5097382;27;20040;-63
2023/01/01 16:55:30;;;;;;;30.95;19.73;;;;;;;-143.57;100.00;51308.94;5110837;27;20170;-63
2023/01/01 16:57:57;;;;;;;110.43;53.05;;;;;;;-143.57;100.00;51291.06;5103887;27;20046;-63
2023/01/01 17:00:44;;;;;;;171.85;85.50;;;;;;;-143.57;100.00;51299.00;5106545;27;20043;-68
2023/01/01 17:03:11;;;;;;;87.93;48.13;;;;;;;-143.57;100.00;51318.88;5101389;27;20073;-64
2023/01/01 17:05:38;;;;;;;83.95;47.90;;;;;;;-143.57;100.00;51314.91;5115457;27;20097;-63
2023/01/01 17:08:10;;;;;;;77.80;44.10;;;;;;;-143.57;100.00;51348.72;5098245;28;20126;-64
2023/01/01 17:10:37;;;;;;;72.53;42.95;;;;;;;-143.57;100.00;51346.72;5107788;27;20047;-64
2023/01/01 17:13:04;;;;;;;69.47;42.03;;;;;;;-143.57;100.00;51306.97;5100791;27;20070;-63
2023/01/01 17:15:31;;;;;;;72.22;42.17;;;;;;;-143.57;100.00;51326.84;5108154;27;20039;-63
2023/01/01 17:17:58;;;;;;;70.30;44.58;;;;;;;-143.57;100.00;51293.03;5110072;27;20046;-63
2023/01/01 17:20:26;;;;;;;80.70;46.65;;;;;;;-143.57;100.00;51297.03;5104463;27;20050;-63
2023/01/01 17:22:53;;;;;;;67.07;40.72;;;;;;;-143.57;100.00;51303.00;5107178;27;20134;-63
2023/01/01 17:25:20;;;;;;;58.75;39.08;;;;;;;-143.57;100.00;51318.88;5100103;27;20052;-63
2023/01/01 17:27:49;;;;;;;53.85;34.53;;;;;;;-143.57;100.00;51330.81;5102833;27;20039;-63
2023/01/01 17:30:16;;;;;;;50.47;30.65;;;;;;;-143.57;100.00;51320.88;5088774;27;20051;-63
2023/01/01 17:32:43;;;;;;;51.75;28.45;;;;;;;-143.57;100.00;51326.84;5101637;27;20053;-63
2023/01/01 17:35:10;;;;;;;52.08;32.60;;;;;;;-143.57;100.00;51322.88;5109273;27;20074;-63
2023/01/01 17:37:37;;;;;;;51.42;33.20;;;;;;;-143.57;100.00;51318.88;5110321;27;20047;-63
2023/01/01 17:40:04;;;;;;;66.80;43.58;;;;;;;-143.57;100.00;51342.75;5103500;27;20036;-63
2023/01/01 17:42:31;;;;;;;82.28;50.25;;;;;;;-143.57;100.00;51320.88;5108591;27;20054;-63
2023/01/01 17:44:58;;;;;;;112.88;73.82;;;;;;;-143.57;100.00;51312.94;5102605;27;21399;-67
2023/01/01 17:47:25;;;;;;;140.85;93.72;;;;;;;-143.57;100.00;51314.91;5105273;27;20430;-63
2023/01/01 17:49:58;;;;;;;79.95;48.92;;;;;;;-143.57;100.00;51322.88;5100176;27;20514;-63
2023/01/01 17:52:25;;;;;;;86.25;49.95;;;;;;;-143.57;100.00;51306.97;5101307;27;20477;-64
2023/01/01 17:54:52;;;;;;;64.18;38.13;;;;;;;-143.57;100.00;51352.69;5103909;27;20080;-63
2023/01/01 17:57:19;;;;;;;52.90;36.38;;;;;;;-143.57;100.00;51322.88;5114966;27;20039;-64
2023/01/01 17:59:45;;;;;;;40.17;23.52;;;;;;;-143.57;100.00;51306.97;5107140;27;20054;-66
2023/01/01 18:02:13;;;;;;;35.60;23.55;;;;;;;-143.57;100.00;51306.97;5101135;27;20044;-64
2023/01/01 18:04:41;;;;;;;31.40;19.45;;;;;;;-143.57;100.00;51289.06;5102382;27;20701;-64
2023/01/01 18:07:08;;;;;;;34.25;20.02;;;;;;;-143.57;100.00;51340.75;5098622;27;20480;-63
2023/01/01 18:09:36;;;;;;;54.80;31.83;;;;;;;-143.57;100.00;51350.69;5088018;28;20556;-65
2023/01/01 18:12:05;;;;;;;95.85;58.67;;;;;;;-143.57;100.00;51303.00;5094668;27;20075;-64
2023/01/01 18:14:32;;;;;;;30.77;20.83;;;;;;;-143.57;100.00;51318.88;5098938;27;20062;-64
2023/01/01 18:16:59;;;;;;;36.67;22.42;;;;;;;-143.57;100.00;51314.91;5094091;27;20063;-64
2023/01/01 18:19:26;;;;;;;60.97;42.83;;;;;;;-143.57;100.00;51287.09;5095229;27;20160;-63
2023/01/01 18:21:53;;;;;;;31.58;21.02;;;;;;;-143.57;100.00;51350.69;5096479;27;20040;-63
2023/01/01 18:24:20;;;;;;;30.83;18.65;;;;;;;-143.57;100.00;51314.91;5091422;27;20051;-63
2023/01/01 18:26:47;;;;;;;29.95;18.42;;;;;;;-143.57;100.00;51316.91;5103132;27;20040;-64
2023/01/01 18:29:14;;;;;;;33.28;22.67;;;;;;;-143.57;100.00;51304.97;5093669;27;20040;-64
2023/01/01 18:31:42;;;;;;;28.35;18.95;;;;;;;-143.57;100.00;51336.78;5095324;27;20381;-64
2023/01/01 18:34:09;;;;;;;30.40;16.63;;;;;;;-143.57;100.00;51342.75;5097272;27;20211;-64
2023/01/01 18:36:36;;;;;;;38.33;29.42;;;;;;;-143.57;100.00;51338.78;5098597;27;20790;-63
2023/01/01 18:39:19;;;;;;;40.63;27.17;;;;;;;-143.57;100.00;51304.97;5101341;27;20055;-63
2023/01/01 18:41:55;;;;;;;91.00;49.00;;;;;;;-143.57;100.00;51279.13;5097349;27;20051;-64
2023/01/01 18:44:27;;;;;;;57.08;39.10;;;;;;;-143.57;100.00;51326.84;5097148;27;20047;-64
2023/01/01 18:47:03;;;;;;;73.70;45.10;;;;;;;-143.57;100.00;51308.94;5098630;27;20203;-64
2023/01/01 18:49:31;;;;;;;58.03;35.67;;;;;;;-143.57;100.00;51310.94;5099246;27;20130;-64
2023/01/01 18:52:15;;;;;;;55.53;34.10;;;;;;;-143.57;100.00;51306.97;5098403;27;20040;-65
2023/01/01 18:54:43;;;;;;;57.30;36.85;;;;;;;-143.57;100.00;51295.03;5094855;27;20066;-64
2023/01/01 18:57:20;;;;;;;32.05;21.95;;;;;;;-143.57;100.00;51279.13;5100578;27;20046;-64
2023/01/01 18:59:58;;;;;;;56.72;39.92;;;;;;;-143.57;100.00;51283.09;5103924;27;20064;-65
2023/01/01 19:02:41;;;;;;;49.67;31.23;;;;;;;-143.57;100.00;51354.66;5100396;27;20040;-65
2023/01/01 19:05:15;;;;;;;61.38;42.28;;;;;;;-143.57;100.00;51295.03;5098264;27;20166;-64
2023/01/01 19:07:49;;;;;;;67.57;48.28;;;;;;;-143.57;100.00;51299.00;5107199;27;20039;-66
2023/01/01 19:10:16;;;;;;;65.75;46.60;;;;;;;-143.57;100.00;51310.94;5099035;27;20046;-65
2023/01/01 19:12:43;;;;;;;77.65;58.90;;;;;;;-143.57;100.00;51310.94;5095903;27;20061;-65
2023/01/01 19:15:18;;;;;;;53.80;28.98;;;;;;;-143.57;100.00;51314.91;5100030;27;20047;-65
2023/01/01 19:17:45;;;;;;;94.32;46.15;;;;;;;-143.57;100.00;51350.69;5103647;27;20039;-64
2023/01/01 19:20:20;;;;;;;110.75;53.08;;;;;;;-143.57;100.00;51318.88;5097667;27;20760;-65
2023/01/01 19:22:47;;;;;;;105.90;52.60;;;;;;;-143.57;100.00;51301.00;5108271;27;20207;-65
2023/01/01 19:25:31;;;;;;;150.27;67.85;;;;;;;-143.57;100.00;51324.84;5107100;27;20057;-66
2023/01/01 19:28:24;;;;;;;48.63;32.47;;;;;;;-143.57;100.00;51283.09;5093426;28;20039;-65
2023/01/01 19:30:51;;;;;;;38.72;24.63;;;;;;;-143.57;100.00;51310.94;5104266;27;20035;-64
2023/01/01 19:33:18;;;;;;;29.80;17.75;;;;;;;-143.57;100.00;51281.13;5103956;27;20092;-65
2023/01/01 19:35:45;;;;;;;25.85;17.95;;;;;;;-143.57;100.00;51310.94;5104713;27;20054;-65
2023/01/01 19:38:11;;;;;;;25.20;16.33;;;;;;;-143.57;100.00;51318.88;5083508;28;20051;-65